Time;durP1;ratioP1;P1;durP2;ratioP2;P2;SDS_P1;SDS_P2;PMS_P1;PMS_P2;Temp;Humidity;BMP_temperature;BMP_pressure;BME280_temperature;BME280_humidity;BME280_pressure;Samples;Min_cycle;Max_cycle;Signal;HPM_P1;HPM_P2
2022/01/11 00:01:51;;;;;;;32.27;18.07;;;4.00;99.90;;;;;;5063231;28;20201;-45
2022/01/11 00:04:18;;;;;;;35.60;20.40;;;4.00;99.90;;;;;;5056559;28;20226;-46
2022/01/11 00:06:48;;;;;;;34.83;20.07;;;4.00;99.90;;;;;;5050674;28;20974;-47
2022/01/11 00:09:29;;;;;;;28.93;17.80;;;4.00;99.90;;;;;;5063801;28;20281;-45
2022/01/11 00:11:58;;;;;;;30.27;17.70;;;4.00;99.90;;;;;;5062161;28;20179;-46
2022/01/11 00:14:25;;;;;;;33.93;17.97;;;4.00;99.90;;;;;;5063999;28;20222;-46
2022/01/11 00:16:51;;;;;;;32.37;16.80;;;4.00;99.90;;;;;;5060945;28;20206;-44
2022/01/11 00:19:18;;;;;;;31.87;17.73;;;4.00;99.90;;;;;;5064650;28;20194;-45
2022/01/11 00:21:48;;;;;;;34.50;18.63;;;4.00;99.90;;;;;;5051142;28;20198;-45
2022/01/11 00:24:30;;;;;;;34.90;17.87;;;4.10;99.90;;;;;;5063712;28;20214;-44
2022/01/11 00:27:01;;;;;;;29.10;17.07;;;4.00;99.90;;;;;;5062093;28;20191;-44
2022/01/11 00:29:29;;;;;;;27.90;15.87;;;4.00;99.90;;;;;;5061913;28;20213;-46
2022/01/11 00:32:02;;;;;;;27.60;16.43;;;4.00;99.90;;;;;;5060982;28;20882;-44
2022/01/11 00:34:39;;;;;;;29.57;16.00;;;4.00;99.90;;;;;;5062703;28;20772;-43
2022/01/11 00:37:07;;;;;;;25.70;15.53;;;4.00;99.90;;;;;;5054618;28;20287;-46
2022/01/11 00:39:34;;;;;;;30.13;16.90;;;4.00;99.90;;;;;;5061867;28;20197;-45
2022/01/11 00:42:03;;;;;;;27.00;16.27;;;4.00;99.90;;;;;;5061457;28;20191;-43
2022/01/11 00:44:30;;;;;;;29.97;16.73;;;3.90;99.90;;;;;;5061296;28;20225;-44
2022/01/11 00:46:57;;;;;;;24.73;16.87;;;4.00;99.90;;;;;;5060413;28;20394;-46
2022/01/11 00:49:23;;;;;;;28.27;15.40;;;3.90;99.90;;;;;;5062291;28;20191;-48
2022/01/11 00:51:50;;;;;;;24.43;14.33;;;3.90;99.90;;;;;;5050818;28;20379;-44
2022/01/11 00:54:17;;;;;;;24.70;14.67;;;3.90;99.90;;;;;;5063633;28;20225;-44
2022/01/11 00:56:45;;;;;;;27.47;15.07;;;3.90;99.90;;;;;;5059558;28;20206;-47
2022/01/11 00:59:13;;;;;;;25.70;15.27;;;3.90;99.90;;;;;;5063713;28;20210;-43
2022/01/11 01:01:40;;;;;;;23.60;15.10;;;3.80;99.90;;;;;;5060147;28;20202;-48
2022/01/11 01:04:07;;;;;;;24.87;14.97;;;3.80;99.90;;;;;;5063467;28;20222;-46
2022/01/11 01:06:37;;;;;;;26.97;13.90;;;3.80;99.90;;;;;;5061077;28;20187;-45
2022/01/11 01:09:05;;;;;;;25.07;14.87;;;3.80;99.90;;;;;;5053878;28;20195;-47
2022/01/11 01:11:36;;;;;;;21.80;13.07;;;3.80;99.90;;;;;;5059325;28;20685;-49
2022/01/11 01:14:04;;;;;;;23.63;14.17;;;3.80;99.90;;;;;;5061744;28;20215;-45
2022/01/11 01:16:32;;;;;;;22.37;14.57;;;3.80;99.90;;;;;;5061497;28;20217;-47
2022/01/11 01:19:06;;;;;;;24.63;14.23;;;3.80;99.90;;;;;;5062304;28;20212;-46
2022/01/11 01:21:37;;;;;;;25.10;14.10;;;3.80;99.90;;;;;;5061260;28;20823;-48
2022/01/11 01:24:06;;;;;;;24.17;14.10;;;3.80;99.90;;;;;;5052177;28;20242;-43
2022/01/11 01:26:32;;;;;;;25.27;14.27;;;3.80;99.90;;;;;;5059468;28;20179;-47
2022/01/11 01:29:00;;;;;;;22.20;14.27;;;3.80;99.90;;;;;;5061851;28;20579;-43
2022/01/11 01:31:28;;;;;;;23.33;13.80;;;3.80;99.90;;;;;;5060917;28;20206;-46
2022/01/11 01:33:57;;;;;;;20.30;13.60;;;3.90;99.90;;;;;;5061632;28;20871;-45
2022/01/11 01:36:26;;;;;;;20.10;14.03;;;3.90;99.90;;;;;;5062469;28;20218;-45
2022/01/11 01:38:53;;;;;;;20.07;13.43;;;3.90;99.90;;;;;;5049464;28;20218;-43
2022/01/11 01:41:21;;;;;;;22.20;12.93;;;3.90;99.90;;;;;;5063096;28;20195;-46
2022/01/11 01:43:51;;;;;;;24.00;13.40;;;3.90;99.90;;;;;;5057613;28;20248;-46
2022/01/11 01:46:19;;;;;;;22.60;13.73;;;3.90;99.90;;;;;;5061654;28;20244;-46
2022/01/11 01:48:46;;;;;;;21.03;13.23;;;3.90;99.90;;;;;;5059246;28;20905;-49
2022/01/11 01:51:16;;;;;;;23.17;13.33;;;3.90;99.90;;;;;;5063364;28;20191;-45
2022/01/11 01:53:46;;;;;;;21.47;13.67;;;3.90;99.90;;;;;;5049524;28;21239;-43
2022/01/11 01:56:13;;;;;;;24.57;13.37;;;3.90;99.90;;;;;;5062688;28;20217;-43
2022/01/11 01:58:42;;;;;;;21.13;12.80;;;3.90;99.90;;;;;;5057812;28;20195;-45
2022/01/11 02:01:12;;;;;;;22.20;13.57;;;3.90;99.90;;;;;;5061880;28;20194;-45
2022/01/11 02:03:40;;;;;;;22.93;13.57;;;4.00;99.90;;;;;;5059396;28;20210;-43
2022/01/11 02:06:09;;;;;;;24.07;13.30;;;3.90;99.90;;;;;;5055585;28;20202;-44
2022/01/11 02:08:39;;;;;;;21.63;13.53;;;3.90;99.90;;;;;;5052197;28;20210;-47
2022/01/11 02:11:07;;;;;;;24.00;13.50;;;4.00;99.90;;;;;;5059503;28;20239;-44
2022/01/11 02:13:34;;;;;;;23.73;13.73;;;4.00;99.90;;;;;;5058264;28;20294;-45
2022/01/11 02:16:04;;;;;;;19.87;13.13;;;3.90;99.90;;;;;;5060153;28;20239;-45
2022/01/11 02:18:32;;;;;;;22.43;12.87;;;3.90;99.90;;;;;;5059375;28;20198;-45
2022/01/11 02:21:14;;;;;;;21.70;13.23;;;3.90;99.90;;;;;;5061477;28;20629;-45
2022/01/11 02:23:41;;;;;;;21.50;13.23;;;3.90;99.90;;;;;;5058892;28;20218;-44
2022/01/11 02:26:09;;;;;;;24.27;12.47;;;3.80;99.90;;;;;;5051959;28;20229;-45
2022/01/11 02:28:39;;;;;;;25.97;13.83;;;3.80;99.90;;;;;;5057976;28;20218;-45
2022/01/11 02:31:12;;;;;;;21.67;13.00;;;3.80;99.90;;;;;;5061653;28;20667;-45
2022/01/11 02:33:45;;;;;;;22.87;13.33;;;3.80;99.90;;;;;;5057180;28;20221;-43
2022/01/11 02:36:31;;;;;;;22.47;12.67;;;3.80;99.90;;;;;;5059666;28;20671;-43
2022/01/11 02:39:10;;;;;;;19.00;11.97;;;3.80;99.90;;;;;;5061509;28;20209;-49
2022/01/11 02:41:50;;;;;;;23.67;13.73;;;3.80;99.90;;;;;;5048453;28;20225;-44
2022/01/11 02:44:21;;;;;;;24.50;13.83;;;3.80;99.90;;;;;;5061287;28;20218;-46
2022/01/11 02:46:48;;;;;;;22.37;13.57;;;3.80;99.90;;;;;;5057380;28;20311;-44
2022/01/11 02:49:15;;;;;;;23.10;13.30;;;3.80;99.90;;;;;;5064264;28;20567;-47
2022/01/11 02:51:48;;;;;;;21.90;13.57;;;3.70;99.90;;;;;;5060704;28;20418;-45
2022/01/11 02:54:15;;;;;;;27.23;13.87;;;3.80;99.90;;;;;;5064984;28;20641;-44
2022/01/11 02:56:44;;;;;;;28.50;14.30;;;3.80;99.90;;;;;;5050575;28;20279;-49
2022/01/11 02:59:12;;;;;;;23.13;12.90;;;3.80;99.90;;;;;;5064761;28;20209;-48
2022/01/11 03:01:39;;;;;;;22.30;13.20;;;3.80;99.90;;;;;;5062650;28;20270;-45
2022/01/11 03:04:08;;;;;;;20.93;12.93;;;3.80;99.90;;;;;;5064659;28;20583;-46
2022/01/11 03:06:35;;;;;;;23.67;13.87;;;3.80;99.90;;;;;;5061745;28;20563;-48
2022/01/11 03:09:03;;;;;;;26.77;14.10;;;3.70;99.90;;;;;;5065080;28;20193;-45
2022/01/11 03:11:32;;;;;;;26.60;14.40;;;3.80;99.90;;;;;;5058100;28;20195;-47
2022/01/11 03:14:01;;;;;;;21.20;12.53;;;3.70;99.90;;;;;;5059412;28;20228;-45
2022/01/11 03:16:28;;;;;;;23.70;13.80;;;3.70;99.90;;;;;;5062951;28;20230;-44
2022/01/11 03:18:56;;;;;;;22.73;13.63;;;3.70;99.90;;;;;;5062303;28;20198;-46
2022/01/11 03:21:23;;;;;;;23.97;14.10;;;3.70;99.90;;;;;;5064634;28;20202;-50
2022/01/11 03:23:50;;;;;;;27.37;14.10;;;3.70;99.90;;;;;;5060720;28;20321;-50
2022/01/11 03:26:18;;;;;;;26.90;14.10;;;3.70;99.90;;;;;;5064183;28;20205;-45
2022/01/11 03:28:46;;;;;;;27.03;13.83;;;3.70;99.90;;;;;;5050507;28;20977;-48
2022/01/11 03:31:13;;;;;;;26.67;14.40;;;3.80;99.90;;;;;;5065673;28;20651;-44
2022/01/11 03:33:48;;;;;;;26.87;14.57;;;3.80;99.90;;;;;;5060309;28;20961;-49
2022/01/11 03:36:15;;;;;;;25.27;13.90;;;3.80;99.90;;;;;;5063671;28;20218;-46
2022/01/11 03:38:43;;;;;;;27.37;14.03;;;3.80;99.90;;;;;;5060193;28;20752;-45
2022/01/11 03:41:13;;;;;;;30.83;15.10;;;3.70;99.90;;;;;;5065550;28;20660;-51
2022/01/11 03:43:42;;;;;;;24.93;14.00;;;3.70;99.90;;;;;;5050368;28;20218;-44
2022/01/11 03:46:13;;;;;;;31.90;15.37;;;3.70;99.90;;;;;;5063542;28;20190;-43
2022/01/11 03:48:40;;;;;;;26.47;15.23;;;3.70;99.90;;;;;;5060026;28;20190;-44
2022/01/11 03:51:07;;;;;;;28.47;15.17;;;3.80;99.90;;;;;;5063797;28;20202;-47
2022/01/11 03:53:51;;;;;;;25.17;14.97;;;3.70;99.90;;;;;;5059976;28;20221;-49
2022/01/11 03:56:22;;;;;;;35.37;15.40;;;3.80;99.90;;;;;;5063372;28;20218;-46
2022/01/11 03:58:56;;;;;;;32.27;14.50;;;3.80;99.90;;;;;;5050756;28;20294;-48
2022/01/11 04:01:25;;;;;;;29.73;15.50;;;3.70;99.90;;;;;;5062468;28;20201;-49
2022/01/11 04:03:51;;;;;;;32.67;16.20;;;3.80;99.90;;;;;;5061814;28;20810;-45
2022/01/11 04:06:19;;;;;;;27.90;15.00;;;3.80;99.90;;;;;;5063173;28;20205;-46
2022/01/11 04:08:47;;;;;;;30.83;16.33;;;3.80;99.90;;;;;;5060706;28;20190;-46
2022/01/11 04:11:16;;;;;;;24.67;14.73;;;3.80;99.90;;;;;;5059418;28;20667;-47
2022/01/11 04:13:43;;;;;;;31.53;15.80;;;3.80;99.90;;;;;;5049401;28;20238;-45
2022/01/11 04:16:12;;;;;;;32.30;17.17;;;3.80;99.90;;;;;;5062227;28;20193;-46
2022/01/11 04:18:39;;;;;;;33.57;16.80;;;3.80;99.90;;;;;;5060390;28;20835;-43
2022/01/11 04:21:06;;;;;;;29.87;16.30;;;3.80;99.90;;;;;;5062619;28;20273;-47
2022/01/11 04:23:34;;;;;;;28.60;16.43;;;3.80;99.90;;;;;;5060790;28;20215;-47
2022/01/11 04:26:01;;;;;;;37.63;17.43;;;3.80;99.90;;;;;;5062795;28;20190;-47
2022/01/11 04:28:30;;;;;;;31.27;16.63;;;3.80;99.90;;;;;;5057418;28;20217;-46
2022/01/11 04:31:00;;;;;;;31.23;17.73;;;3.80;99.90;;;;;;5056928;28;20422;-49
2022/01/11 04:33:30;;;;;;;36.77;17.67;;;3.80;99.90;;;;;;5061601;28;20215;-46
2022/01/11 04:35:59;;;;;;;30.67;16.70;;;3.80;99.90;;;;;;5060420;28;20397;-48
2022/01/11 04:38:28;;;;;;;33.93;17.23;;;3.80;99.90;;;;;;5061793;28;20268;-48
2022/01/11 04:40:57;;;;;;;32.37;16.90;;;3.80;99.90;;;;;;5059610;28;20198;-44
2022/01/11 04:43:26;;;;;;;38.40;18.17;;;3.80;99.90;;;;;;5061860;28;20272;-49
2022/01/11 04:45:53;;;;;;;30.20;17.10;;;3.80;99.90;;;;;;5049920;28;20298;-45
2022/01/11 04:48:20;;;;;;;32.90;17.77;;;3.80;99.90;;;;;;5063925;28;20874;-45
2022/01/11 04:50:51;;;;;;;42.33;17.37;;;3.80;99.90;;;;;;5058879;28;20251;-44
2022/01/11 04:53:19;;;;;;;40.50;19.37;;;3.80;99.90;;;;;;5062757;28;20202;-49
2022/01/11 04:55:45;;;;;;;35.53;17.80;;;3.80;99.90;;;;;;5058271;28;20920;-48
2022/01/11 04:58:13;;;;;;;36.33;17.20;;;3.80;99.90;;;;;;5062412;28;20223;-48
2022/01/11 05:00:40;;;;;;;38.50;18.27;;;3.80;99.90;;;;;;5042486;28;20218;-45
2022/01/11 05:03:07;;;;;;;42.77;19.10;;;3.80;99.90;;;;;;5062291;28;20244;-47
2022/01/11 05:05:34;;;;;;;37.87;18.53;;;3.80;99.90;;;;;;5051521;28;20186;-45
2022/01/11 05:08:04;;;;;;;38.07;17.67;;;3.80;99.90;;;;;;5057477;28;20209;-48
2022/01/11 05:10:32;;;;;;;40.87;19.20;;;3.80;99.90;;;;;;5059279;28;21014;-44
2022/01/11 05:12:59;;;;;;;39.03;17.70;;;3.80;99.90;;;;;;5062182;28;20667;-45
2022/01/11 05:15:28;;;;;;;40.77;18.33;;;3.80;99.90;;;;;;5050626;28;20191;-46
2022/01/11 05:17:55;;;;;;;38.73;18.07;;;3.80;99.90;;;;;;5060713;28;20214;-45
2022/01/11 05:20:23;;;;;;;40.93;18.07;;;3.80;99.90;;;;;;5059679;28;20206;-46
2022/01/11 05:22:50;;;;;;;45.37;20.07;;;3.80;99.90;;;;;;5056480;28;20195;-44
2022/01/11 05:25:20;;;;;;;49.50;20.50;;;3.80;99.90;;;;;;5060815;28;20215;-46
2022/01/11 05:27:48;;;;;;;45.73;19.80;;;3.80;99.90;;;;;;5060159;28;20194;-46
2022/01/11 05:30:14;;;;;;;44.37;19.47;;;3.80;99.90;;;;;;5058690;28;20667;-49
2022/01/11 05:32:42;;;;;;;44.80;20.17;;;3.80;99.90;;;;;;5054840;28;20255;-46
2022/01/11 05:35:12;;;;;;;44.30;19.13;;;3.80;99.90;;;;;;5052060;28;20222;-44
2022/01/11 05:37:40;;;;;;;48.47;20.30;;;3.80;99.90;;;;;;5061280;28;20218;-49
2022/01/11 05:40:10;;;;;;;51.70;20.30;;;3.90;99.90;;;;;;5054285;28;20209;-45
2022/01/11 05:42:39;;;;;;;45.63;20.00;;;3.90;99.90;;;;;;5058709;28;20202;-45
2022/01/11 05:45:08;;;;;;;46.57;20.03;;;3.90;99.90;;;;;;5060284;28;20223;-48
2022/01/11 05:47:36;;;;;;;52.53;20.17;;;3.90;99.90;;;;;;5047945;28;20293;-46
2022/01/11 05:50:05;;;;;;;45.60;18.43;;;3.90;99.90;;;;;;5059526;28;20203;-50
2022/01/11 05:52:33;;;;;;;54.77;21.03;;;3.90;99.90;;;;;;5062103;28;20203;-45
2022/01/11 05:55:00;;;;;;;43.37;19.97;;;3.90;99.90;;;;;;5055405;28;20280;-44
2022/01/11 05:57:27;;;;;;;52.03;20.33;;;3.90;99.90;;;;;;5051797;28;20225;-46
2022/01/11 05:59:55;;;;;;;51.10;22.67;;;3.90;99.90;;;;;;5060772;28;20198;-50
2022/01/11 06:02:22;;;;;;;44.57;19.43;;;3.90;99.90;;;;;;5049124;28;20297;-45
2022/01/11 06:04:50;;;;;;;44.63;18.70;;;3.90;99.90;;;;;;5059606;28;20234;-46
2022/01/11 06:07:17;;;;;;;46.93;19.47;;;3.90;99.90;;;;;;5045032;28;20904;-43
2022/01/11 06:09:44;;;;;;;46.53;20.47;;;3.90;99.90;;;;;;5053430;28;20233;-45
2022/01/11 06:12:11;;;;;;;46.13;18.40;;;3.90;99.90;;;;;;5047429;28;20667;-42
2022/01/11 06:14:39;;;;;;;46.20;19.17;;;3.90;99.90;;;;;;5049026;28;20215;-43
2022/01/11 06:17:10;;;;;;;45.23;19.10;;;3.90;99.90;;;;;;5057399;28;20479;-43
2022/01/11 06:19:37;;;;;;;46.53;18.00;;;3.90;99.90;;;;;;5049225;28;20285;-43
2022/01/11 06:22:07;;;;;;;54.53;18.97;;;3.90;99.90;;;;;;5053302;28;20297;-43
2022/01/11 06:24:35;;;;;;;57.20;19.87;;;3.90;99.90;;;;;;5050690;28;20218;-45
2022/01/11 06:27:02;;;;;;;47.00;17.23;;;3.90;99.90;;;;;;5054161;28;22174;-44
2022/01/11 06:29:29;;;;;;;51.30;18.80;;;3.90;99.90;;;;;;5060528;28;20373;-46
2022/01/11 06:31:55;;;;;;;43.27;18.70;;;3.90;99.90;;;;;;5052986;28;20922;-44
2022/01/11 06:34:24;;;;;;;42.93;16.40;;;3.90;99.90;;;;;;5052202;28;20241;-48
2022/01/11 06:36:51;;;;;;;44.20;16.40;;;3.90;99.90;;;;;;5052546;28;20188;-44
2022/01/11 06:39:18;;;;;;;41.93;17.00;;;3.90;99.90;;;;;;5059242;28;20265;-45
2022/01/11 06:41:45;;;;;;;48.23;17.80;;;3.90;99.90;;;;;;5055286;28;20195;-44
2022/01/11 06:44:15;;;;;;;40.70;17.13;;;3.90;99.90;;;;;;5056128;28;20253;-47
2022/01/11 06:46:44;;;;;;;38.23;17.40;;;3.90;99.90;;;;;;5054668;28;20198;-46
2022/01/11 06:49:14;;;;;;;43.20;17.50;;;3.80;99.90;;;;;;5049964;28;20289;-46
2022/01/11 06:51:43;;;;;;;48.93;18.57;;;3.80;99.90;;;;;;5055269;28;20191;-47
2022/01/11 06:54:09;;;;;;;38.67;17.07;;;3.90;99.90;;;;;;5051943;28;20228;-45
2022/01/11 06:56:37;;;;;;;43.07;18.60;;;3.90;99.90;;;;;;5049754;28;20385;-43
2022/01/11 06:59:08;;;;;;;47.60;17.83;;;3.90;99.90;;;;;;5063806;28;20207;-44
2022/01/11 07:01:36;;;;;;;37.63;17.10;;;3.90;99.90;;;;;;5054420;28;20369;-47
2022/01/11 07:04:07;;;;;;;37.33;15.43;;;3.90;99.90;;;;;;5050160;28;20221;-48
2022/01/11 07:06:45;;;;;;;37.37;16.43;;;3.90;99.90;;;;;;5055266;28;20232;-46
2022/01/11 07:09:12;;;;;;;37.07;15.53;;;3.90;99.90;;;;;;5053878;28;20198;-44
2022/01/11 07:11:39;;;;;;;35.00;15.63;;;3.90;99.90;;;;;;5047246;28;20187;-44
2022/01/11 07:14:11;;;;;;;33.60;15.93;;;3.90;99.90;;;;;;5049677;28;20280;-47
2022/01/11 07:16:39;;;;;;;40.17;16.43;;;3.90;99.90;;;;;;5048651;28;20191;-48
2022/01/11 07:19:06;;;;;;;34.17;16.03;;;3.90;99.90;;;;;;5053618;28;20222;-45
2022/01/11 07:21:35;;;;;;;34.00;15.50;;;3.90;99.90;;;;;;5044006;28;20203;-48
2022/01/11 07:24:06;;;;;;;34.37;14.87;;;3.90;99.90;;;;;;5063154;28;20218;-44
2022/01/11 07:26:34;;;;;;;37.57;15.33;;;3.90;99.90;;;;;;5055719;28;20222;-45
2022/01/11 07:29:03;;;;;;;34.03;15.77;;;3.90;99.90;;;;;;5054995;28;20234;-44
2022/01/11 07:31:30;;;;;;;32.20;15.07;;;3.90;99.90;;;;;;5077564;28;20217;-44
2022/01/11 07:33:57;;;;;;;35.93;14.97;;;4.00;99.90;;;;;;5072901;28;20703;-47
2022/01/11 07:36:25;;;;;;;36.03;16.03;;;4.00;99.90;;;;;;5047766;28;20309;-46
2022/01/11 07:38:58;;;;;;;31.03;14.87;;;4.00;99.90;;;;;;5049363;28;20239;-44
2022/01/11 07:41:32;;;;;;;34.70;15.50;;;3.90;99.90;;;;;;5038864;28;20285;-46
2022/01/11 07:44:31;;;;;;;34.47;15.50;;;4.00;99.90;;;;;;5037576;28;20251;-44
2022/01/11 07:46:58;;;;;;;40.80;15.53;;;4.00;99.90;;;;;;5073681;28;20627;-45
2022/01/11 07:49:31;;;;;;;34.73;14.90;;;4.00;99.90;;;;;;5040175;28;20195;-45
2022/01/11 07:51:58;;;;;;;34.00;15.23;;;4.00;99.90;;;;;;5039938;28;20206;-47
2022/01/11 07:54:26;;;;;;;31.37;14.80;;;3.90;99.90;;;;;;5046161;28;20863;-47
2022/01/11 07:56:54;;;;;;;33.63;15.67;;;3.90;99.90;;;;;;5044770;28;20549;-45
2022/01/11 07:59:21;;;;;;;32.10;16.63;;;4.00;99.90;;;;;;5054391;28;20265;-43
2022/01/11 08:01:48;;;;;;;27.47;13.50;;;4.00;99.90;;;;;;5054565;28;20198;-48
2022/01/11 08:04:18;;;;;;;30.93;14.37;;;4.00;99.90;;;;;;5052865;28;20967;-45
2022/01/11 08:06:50;;;;;;;26.83;12.80;;;4.00;99.90;;;;;;5079133;28;20210;-44
2022/01/11 08:09:33;;;;;;;28.57;12.93;;;3.90;99.90;;;;;;5071562;28;20543;-43
2022/01/11 08:12:01;;;;;;;29.07;12.70;;;3.90;99.90;;;;;;5044859;28;20199;-45
2022/01/11 08:14:29;;;;;;;26.23;12.50;;;3.90;99.90;;;;;;5053973;28;20219;-46
2022/01/11 08:16:56;;;;;;;25.90;12.97;;;3.90;99.90;;;;;;5053287;28;20203;-45
2022/01/11 08:19:26;;;;;;;21.07;10.53;;;3.80;99.90;;;;;;5055142;28;20500;-44
2022/01/11 08:21:55;;;;;;;21.20;11.23;;;3.80;99.90;;;;;;5040287;28;20217;-44
2022/01/11 08:24:23;;;;;;;22.97;11.50;;;3.80;99.90;;;;;;5057613;28;20407;-43
2022/01/11 08:26:52;;;;;;;21.80;11.57;;;3.80;99.90;;;;;;5048205;28;20204;-50
2022/01/11 08:29:21;;;;;;;27.30;11.73;;;3.80;99.90;;;;;;5058125;28;20195;-44
2022/01/11 08:31:51;;;;;;;20.67;10.63;;;3.80;99.90;;;;;;5045267;28;20204;-46
2022/01/11 08:34:18;;;;;;;19.77;9.60;;;3.70;99.90;;;;;;5060751;28;20214;-43
2022/01/11 08:36:48;;;;;;;20.47;8.77;;;3.70;99.90;;;;;;5052744;28;20191;-46
2022/01/11 08:39:17;;;;;;;24.93;10.67;;;3.70;99.90;;;;;;5043632;28;20337;-45
2022/01/11 08:41:44;;;;;;;14.23;8.07;;;3.70;99.90;;;;;;5054621;28;20206;-44
2022/01/11 08:44:11;;;;;;;19.53;8.40;;;3.60;99.90;;;;;;5055058;28;20305;-45
2022/01/11 08:46:42;;;;;;;17.20;8.73;;;3.60;99.90;;;;;;5045868;28;20210;-50
2022/01/11 08:49:20;;;;;;;22.13;9.87;;;3.60;99.90;;;;;;5040244;28;20191;-49
2022/01/11 08:51:48;;;;;;;26.80;10.57;;;3.60;99.90;;;;;;5041947;28;20206;-47
2022/01/11 08:54:15;;;;;;;24.40;10.37;;;3.60;99.90;;;;;;5044136;28;20218;-45
2022/01/11 08:56:44;;;;;;;24.63;10.93;;;3.60;99.90;;;;;;5061298;28;20249;-44
2022/01/11 08:59:12;;;;;;;27.53;12.30;;;3.60;99.90;;;;;;5051912;28;20230;-49
2022/01/11 09:01:41;;;;;;;21.53;11.27;;;3.70;99.90;;;;;;5046706;28;20199;-44
2022/01/11 09:04:11;;;;;;;25.07;11.37;;;3.70;99.90;;;;;;5042347;28;20207;-46
2022/01/11 09:06:57;;;;;;;25.93;13.13;;;3.80;99.90;;;;;;5060006;28;20204;-47
2022/01/11 09:09:25;;;;;;;24.50;12.73;;;3.80;99.90;;;;;;5039725;28;20210;-51
2022/01/11 09:11:52;;;;;;;25.57;12.50;;;3.80;99.90;;;;;;5059895;28;20233;-45
2022/01/11 09:14:19;;;;;;;30.77;11.57;;;3.90;99.90;;;;;;5052503;28;20581;-46
2022/01/11 09:16:47;;;;;;;32.13;13.67;;;3.90;99.90;;;;;;5053904;28;20219;-49
2022/01/11 09:19:18;;;;;;;23.90;12.77;;;3.90;99.90;;;;;;5041052;28;21003;-43
2022/01/11 09:21:46;;;;;;;21.30;11.50;;;3.90;99.90;;;;;;5049269;28;20641;-47
2022/01/11 09:24:19;;;;;;;30.10;13.10;;;4.00;99.90;;;;;;5048921;28;21118;-44
2022/01/11 09:26:47;;;;;;;26.73;11.87;;;4.00;99.90;;;;;;5051282;28;20206;-45
2022/01/11 09:29:15;;;;;;;23.37;10.80;;;4.00;99.90;;;;;;5055513;28;20269;-45
2022/01/11 09:31:42;;;;;;;25.80;10.20;;;4.00;99.90;;;;;;5055355;28;20237;-44
2022/01/11 09:34:11;;;;;;;18.73;10.23;;;4.10;99.90;;;;;;5049948;28;20203;-47
2022/01/11 09:36:39;;;;;;;23.67;10.60;;;4.10;99.90;;;;;;5045334;28;20201;-47
2022/01/11 09:39:05;;;;;;;21.27;11.00;;;4.10;99.90;;;;;;5036774;28;20672;-45
2022/01/11 09:41:35;;;;;;;16.13;9.00;;;4.10;99.90;;;;;;5043847;28;20207;-48
2022/01/11 09:44:05;;;;;;;19.83;8.77;;;4.20;99.90;;;;;;5056742;28;20214;-49
2022/01/11 09:46:32;;;;;;;17.10;9.00;;;4.20;99.90;;;;;;5056549;28;20212;-51
2022/01/11 09:49:01;;;;;;;17.03;8.50;;;4.20;99.90;;;;;;5046475;28;20686;-44
2022/01/11 09:51:31;;;;;;;19.07;10.00;;;4.20;99.90;;;;;;5046334;28;20199;-46
2022/01/11 09:53:58;;;;;;;20.13;10.70;;;4.20;99.90;;;;;;5051665;28;20313;-47
2022/01/11 09:56:26;;;;;;;28.83;12.00;;;4.20;99.90;;;;;;5044394;28;20222;-50
2022/01/11 09:58:57;;;;;;;20.90;10.90;;;4.30;99.90;;;;;;5056183;28;20206;-48
2022/01/11 10:01:42;;;;;;;23.17;11.50;;;4.30;99.90;;;;;;5061239;28;20607;-45
2022/01/11 10:04:11;;;;;;;30.17;11.70;;;4.30;99.90;;;;;;5062362;28;20214;-48
2022/01/11 10:07:03;;;;;;;19.20;10.97;;;4.30;99.90;;;;;;5060909;28;20198;-47
2022/01/11 10:09:32;;;;;;;20.10;10.10;;;4.40;99.90;;;;;;5066053;28;20634;-47
2022/01/11 10:12:02;;;;;;;26.23;10.93;;;4.40;99.90;;;;;;5045245;28;20347;-46
2022/01/11 10:14:32;;;;;;;20.50;11.07;;;4.40;99.90;;;;;;5065173;28;20726;-46
2022/01/11 10:17:12;;;;;;;21.13;10.80;;;4.40;99.90;;;;;;5055919;28;20675;-44
2022/01/11 10:19:42;;;;;;;20.47;10.20;;;4.40;99.90;;;;;;5047679;28;20573;-46
2022/01/11 10:22:13;;;;;;;20.87;10.97;;;4.40;99.90;;;;;;5049647;28;20207;-45
2022/01/11 10:24:42;;;;;;;22.50;9.83;;;4.40;99.90;;;;;;5056512;28;20210;-45
2022/01/11 10:27:18;;;;;;;21.93;10.60;;;4.40;99.90;;;;;;5050740;28;20454;-48
2022/01/11 10:29:47;;;;;;;21.60;9.93;;;4.50;99.90;;;;;;5057025;28;20190;-44
2022/01/11 10:32:21;;;;;;;19.53;10.73;;;4.50;99.90;;;;;;5057983;28;20816;-45
2022/01/11 10:34:53;;;;;;;29.90;13.03;;;4.50;99.90;;;;;;5061215;28;20246;-48
2022/01/11 10:37:34;;;;;;;29.10;12.20;;;4.60;99.90;;;;;;5047776;28;20884;-45
2022/01/11 10:40:13;;;;;;;19.53;10.53;;;4.60;99.90;;;;;;5057801;28;20208;-44
2022/01/11 10:42:45;;;;;;;27.90;11.47;;;4.60;99.90;;;;;;5042071;28;20210;-48
2022/01/11 10:45:14;;;;;;;22.87;11.13;;;4.60;99.90;;;;;;5060426;28;20431;-43
2022/01/11 10:47:46;;;;;;;21.00;11.00;;;4.70;99.90;;;;;;5058855;28;20313;-44
2022/01/11 10:50:19;;;;;;;21.23;11.50;;;4.70;99.90;;;;;;5039981;28;20257;-46
2022/01/11 10:52:48;;;;;;;19.60;10.60;;;4.60;99.90;;;;;;5061182;28;20624;-47
2022/01/11 10:55:21;;;;;;;20.03;10.00;;;4.60;99.90;;;;;;5061826;28;20306;-43
2022/01/11 10:57:53;;;;;;;21.20;10.57;;;4.60;99.90;;;;;;5054562;28;20195;-49
2022/01/11 11:00:27;;;;;;;20.60;11.17;;;4.70;99.90;;;;;;5056890;28;20229;-45
2022/01/11 11:02:58;;;;;;;16.73;10.87;;;4.70;99.90;;;;;;5057895;28;20211;-44
2022/01/11 11:05:30;;;;;;;19.70;10.27;;;4.80;99.90;;;;;;5063102;28;20501;-45
2022/01/11 11:08:04;;;;;;;19.43;10.80;;;4.80;99.90;;;;;;5061562;28;20204;-44
2022/01/11 11:10:41;;;;;;;17.93;9.20;;;4.90;99.90;;;;;;5063611;28;20256;-44
2022/01/11 11:13:11;;;;;;;17.20;9.13;;;4.90;99.90;;;;;;5053812;28;20186;-45
2022/01/11 11:15:39;;;;;;;15.53;9.17;;;4.90;99.90;;;;;;5052493;28;20206;-43
2022/01/11 11:18:08;;;;;;;22.30;10.60;;;4.80;99.90;;;;;;5055528;28;20302;-43
2022/01/11 11:20:39;;;;;;;15.87;9.23;;;4.90;99.90;;;;;;5054333;28;20593;-43
2022/01/11 11:23:09;;;;;;;16.40;9.57;;;5.00;99.90;;;;;;5054627;28;20198;-44
2022/01/11 11:25:36;;;;;;;15.93;8.90;;;5.10;99.90;;;;;;5062436;28;20647;-43
2022/01/11 11:28:03;;;;;;;15.87;8.73;;;5.10;99.90;;;;;;5061126;28;20194;-44
2022/01/11 11:30:30;;;;;;;17.70;9.40;;;5.10;99.90;;;;;;5046395;28;20196;-46
2022/01/11 11:32:57;;;;;;;14.17;8.93;;;5.00;99.90;;;;;;5048354;28;20207;-45
2022/01/11 11:35:23;;;;;;;13.33;8.50;;;4.90;99.90;;;;;;5051918;28;20215;-47
2022/01/11 11:37:57;;;;;;;16.73;8.13;;;4.90;99.90;;;;;;5060892;28;20221;-46
2022/01/11 11:40:27;;;;;;;15.27;8.67;;;4.90;99.90;;;;;;5064490;28;20233;-45
2022/01/11 11:42:59;;;;;;;18.87;9.87;;;4.90;99.90;;;;;;5051473;28;20201;-47
2022/01/11 11:45:28;;;;;;;17.43;8.60;;;4.80;99.90;;;;;;5044026;28;20242;-47
2022/01/11 11:48:03;;;;;;;16.03;9.83;;;4.80;99.90;;;;;;5057754;28;20196;-45
2022/01/11 11:50:30;;;;;;;16.77;8.20;;;4.80;99.90;;;;;;5053649;28;20663;-44
2022/01/11 11:52:57;;;;;;;20.93;8.87;;;4.80;99.90;;;;;;5060446;28;20929;-43
2022/01/11 11:55:28;;;;;;;13.67;7.97;;;4.70;99.90;;;;;;5060906;28;20217;-45
2022/01/11 11:57:57;;;;;;;14.80;8.87;;;4.70;99.90;;;;;;5047207;28;20214;-47
2022/01/11 12:00:26;;;;;;;16.80;8.53;;;4.70;99.90;;;;;;5041686;28;20284;-46
2022/01/11 12:02:54;;;;;;;15.50;8.50;;;4.70;99.90;;;;;;5059635;28;20206;-43
2022/01/11 12:05:37;;;;;;;18.03;8.90;;;4.70;99.90;;;;;;5057838;28;20226;-45
2022/01/11 12:08:28;;;;;;;20.23;9.33;;;4.80;99.90;;;;;;5048799;28;20203;-43
2022/01/11 12:11:00;;;;;;;18.40;8.57;;;4.70;99.90;;;;;;5062117;28;20549;-44
2022/01/11 12:13:48;;;;;;;15.63;8.53;;;4.70;99.90;;;;;;5045270;28;20959;-44
2022/01/11 12:16:47;;;;;;;18.13;8.53;;;4.70;99.90;;;;;;5048499;28;20195;-43
2022/01/11 12:19:44;;;;;;;16.33;9.20;;;4.80;99.90;;;;;;4972413;28;20335;-43
2022/01/11 12:22:17;;;;;;;13.43;7.20;;;4.80;99.90;;;;;;5053457;28;20283;-43
2022/01/11 12:24:45;;;;;;;14.97;8.13;;;4.80;99.90;;;;;;5068436;28;20222;-44
2022/01/11 12:27:15;;;;;;;18.03;8.43;;;4.80;99.90;;;;;;5062252;28;20205;-44
2022/01/11 12:29:54;;;;;;;12.90;8.00;;;4.80;99.90;;;;;;5051386;28;20192;-44
2022/01/11 12:32:23;;;;;;;15.57;8.57;;;4.90;99.90;;;;;;5049555;28;20199;-48
2022/01/11 12:35:03;;;;;;;16.63;8.30;;;4.90;99.90;;;;;;5063189;28;20218;-46
2022/01/11 12:37:34;;;;;;;14.53;8.33;;;4.90;99.90;;;;;;5061568;28;20228;-45
2022/01/11 12:40:13;;;;;;;14.73;7.90;;;5.00;99.90;;;;;;5051472;28;20225;-47
2022/01/11 12:43:01;;;;;;;13.83;8.20;;;5.00;99.90;;;;;;5044456;28;20655;-48
2022/01/11 12:46:01;;;;;;;16.80;8.40;;;5.00;99.90;;;;;;5046366;28;20220;-44
2022/01/11 12:49:02;;;;;;;17.37;7.97;;;5.00;99.90;;;;;;5045577;28;20277;-44
2022/01/11 12:51:48;;;;;;;12.73;7.40;;;5.00;99.90;;;;;;4967494;28;20217;-44
2022/01/11 12:54:21;;;;;;;13.67;7.63;;;5.00;99.90;;;;;;4969076;28;20234;-46